sensor_id;sensor_type;location;lat;lon;timestamp;temperature;humidity
4699;DHT22;33708;49.466;11.176;2024-01-11T00:01:14;-5.80;1.00
4699;DHT22;33708;49.466;11.176;2024-01-11T00:03:40;-5.90;1.00
4699;DHT22;33708;49.466;11.176;2024-01-11T00:06:05;-6.00;1.00
4699;DHT22;33708;49.466;11.176;2024-01-11T00:08:31;-6.00;1.00
4699;DHT22;33708;49.466;11.176;2024-01-11T00:10:57;-5.90;1.00
4699;DHT22;33708;49.466;11.176;2024-01-11T00:13:22;-5.70;1.00
4699;DHT22;33708;49.466;11.176;2024-01-11T00:15:48;-5.70;1.00
4699;DHT22;33708;49.466;11.176;2024-01-11T00:18:13;-4.50;1.00
4699;DHT22;33708;49.466;11.176;2024-01-11T00:20:39;-5.60;1.00
4699;DHT22;33708;49.466;11.176;2024-01-11T00:23:04;-5.50;1.00
4699;DHT22;33708;49.466;11.176;2024-01-11T00:25:30;-5.40;1.00
4699;DHT22;33708;49.466;11.176;2024-01-11T00:27:56;-5.30;1.00
4699;DHT22;33708;49.466;11.176;2024-01-11T00:30:21;-5.30;1.00
4699;DHT22;33708;49.466;11.176;2024-01-11T00:32:48;-5.30;1.00
4699;DHT22;33708;49.466;11.176;2024-01-11T00:35:14;-5.30;1.00
4699;DHT22;33708;49.466;11.176;2024-01-11T00:37:39;-5.30;1.00
4699;DHT22;33708;49.466;11.176;2024-01-11T00:40:06;-5.20;1.00
4699;DHT22;33708;49.466;11.176;2024-01-11T00:42:31;-5.20;1.00
4699;DHT22;33708;49.466;11.176;2024-01-11T00:44:57;-5.10;1.00
4699;DHT22;33708;49.466;11.176;2024-01-11T00:47:22;-5.20;1.00
4699;DHT22;33708;49.466;11.176;2024-01-11T00:49:48;-5.20;1.00
4699;DHT22;33708;49.466;11.176;2024-01-11T00:52:13;-5.20;1.00
4699;DHT22;33708;49.466;11.176;2024-01-11T00:54:39;-5.20;1.00
4699;DHT22;33708;49.466;11.176;2024-01-11T00:57:05;-5.20;1.00
4699;DHT22;33708;49.466;11.176;2024-01-11T00:59:31;-5.20;1.00
4699;DHT22;33708;49.466;11.176;2024-01-11T01:01:56;-5.10;1.00
4699;DHT22;33708;49.466;11.176;2024-01-11T01:04:22;-5.10;1.00
4699;DHT22;33708;49.466;11.176;2024-01-11T01:06:47;-5.10;1.00
4699;DHT22;33708;49.466;11.176;2024-01-11T01:09:13;-5.10;1.00
4699;DHT22;33708;49.466;11.176;2024-01-11T01:11:39;-5.10;1.00
4699;DHT22;33708;49.466;11.176;2024-01-11T01:14:05;-5.30;1.00
4699;DHT22;33708;49.466;11.176;2024-01-11T01:16:30;-5.20;1.00
4699;DHT22;33708;49.466;11.176;2024-01-11T01:18:56;-5.30;1.00
4699;DHT22;33708;49.466;11.176;2024-01-11T01:21:22;-5.50;1.00
4699;DHT22;33708;49.466;11.176;2024-01-11T01:23:47;-5.70;1.00
4699;DHT22;33708;49.466;11.176;2024-01-11T01:26:13;-5.80;1.00
4699;DHT22;33708;49.466;11.176;2024-01-11T01:28:39;-5.80;1.00
4699;DHT22;33708;49.466;11.176;2024-01-11T01:31:05;-6.00;1.00
4699;DHT22;33708;49.466;11.176;2024-01-11T01:33:31;-6.10;1.00
4699;DHT22;33708;49.466;11.176;2024-01-11T01:35:56;-6.10;1.00
4699;DHT22;33708;49.466;11.176;2024-01-11T01:38:22;-6.10;1.00
4699;DHT22;33708;49.466;11.176;2024-01-11T01:40:47;-6.00;1.00
4699;DHT22;33708;49.466;11.176;2024-01-11T01:43:13;-6.10;1.00
4699;DHT22;33708;49.466;11.176;2024-01-11T01:45:39;-6.10;1.00
4699;DHT22;33708;49.466;11.176;2024-01-11T01:48:05;-6.20;1.00
4699;DHT22;33708;49.466;11.176;2024-01-11T01:50:32;-6.20;1.00
4699;DHT22;33708;49.466;11.176;2024-01-11T01:53:00;-6.10;1.00
4699;DHT22;33708;49.466;11.176;2024-01-11T01:55:26;-6.20;1.00
4699;DHT22;33708;49.466;11.176;2024-01-11T01:57:53;-6.10;1.00
4699;DHT22;33708;49.466;11.176;2024-01-11T02:00:19;-6.20;1.00
4699;DHT22;33708;49.466;11.176;2024-01-11T02:02:46;-6.20;1.00
4699;DHT22;33708;49.466;11.176;2024-01-11T02:05:16;-6.20;1.00
4699;DHT22;33708;49.466;11.176;2024-01-11T02:07:43;-6.20;1.00
4699;DHT22;33708;49.466;11.176;2024-01-11T02:10:09;-6.20;1.00
4699;DHT22;33708;49.466;11.176;2024-01-11T02:12:36;-4.80;1.00
4699;DHT22;33708;49.466;11.176;2024-01-11T02:15:03;-6.20;1.00
4699;DHT22;33708;49.466;11.176;2024-01-11T02:17:30;-6.30;1.00
4699;DHT22;33708;49.466;11.176;2024-01-11T02:19:55;-6.30;1.00
4699;DHT22;33708;49.466;11.176;2024-01-11T02:22:27;-6.30;1.00
4699;DHT22;33708;49.466;11.176;2024-01-11T02:24:54;-6.40;1.00
4699;DHT22;33708;49.466;11.176;2024-01-11T02:27:19;-6.40;1.00
4699;DHT22;33708;49.466;11.176;2024-01-11T02:29:45;-6.40;1.00
4699;DHT22;33708;49.466;11.176;2024-01-11T02:32:11;-6.40;1.00
4699;DHT22;33708;49.466;11.176;2024-01-11T02:34:37;-6.50;1.00
4699;DHT22;33708;49.466;11.176;2024-01-11T02:37:03;-6.40;1.00
4699;DHT22;33708;49.466;11.176;2024-01-11T02:39:29;-6.50;1.00
4699;DHT22;33708;49.466;11.176;2024-01-11T02:41:56;-6.50;1.00
4699;DHT22;33708;49.466;11.176;2024-01-11T02:44:21;-6.40;1.00
4699;DHT22;33708;49.466;11.176;2024-01-11T02:46:47;-6.50;1.00
4699;DHT22;33708;49.466;11.176;2024-01-11T02:49:13;-6.50;1.00
4699;DHT22;33708;49.466;11.176;2024-01-11T02:51:38;-6.50;1.00
4699;DHT22;33708;49.466;11.176;2024-01-11T02:54:04;-6.50;1.00
4699;DHT22;33708;49.466;11.176;2024-01-11T02:56:30;-6.50;1.00
4699;DHT22;33708;49.466;11.176;2024-01-11T02:58:56;-6.60;1.00
4699;DHT22;33708;49.466;11.176;2024-01-11T03:01:21;-6.50;1.00
4699;DHT22;33708;49.466;11.176;2024-01-11T03:03:47;-6.50;1.00
4699;DHT22;33708;49.466;11.176;2024-01-11T03:06:12;-6.50;1.00
4699;DHT22;33708;49.466;11.176;2024-01-11T03:08:39;-6.50;1.00
4699;DHT22;33708;49.466;11.176;2024-01-11T03:11:05;-6.50;1.00
4699;DHT22;33708;49.466;11.176;2024-01-11T03:13:31;-6.40;1.00
4699;DHT22;33708;49.466;11.176;2024-01-11T03:15:56;-6.30;1.00
4699;DHT22;33708;49.466;11.176;2024-01-11T03:18:22;-6.40;1.00
4699;DHT22;33708;49.466;11.176;2024-01-11T03:20:48;-6.50;1.00
4699;DHT22;33708;49.466;11.176;2024-01-11T03:23:13;-6.60;1.00
4699;DHT22;33708;49.466;11.176;2024-01-11T03:25:39;-6.50;1.00
4699;DHT22;33708;49.466;11.176;2024-01-11T03:28:05;-6.50;1.00
4699;DHT22;33708;49.466;11.176;2024-01-11T03:30:30;-6.40;1.00
4699;DHT22;33708;49.466;11.176;2024-01-11T03:32:56;-6.40;1.00
4699;DHT22;33708;49.466;11.176;2024-01-11T03:35:21;-6.40;1.00
4699;DHT22;33708;49.466;11.176;2024-01-11T03:37:47;-6.40;1.00
4699;DHT22;33708;49.466;11.176;2024-01-11T03:40:12;-6.50;1.00
4699;DHT22;33708;49.466;11.176;2024-01-11T03:42:39;-6.60;1.00
4699;DHT22;33708;49.466;11.176;2024-01-11T03:45:09;-7.00;1.00
4699;DHT22;33708;49.466;11.176;2024-01-11T03:47:35;-6.70;1.00
4699;DHT22;33708;49.466;11.176;2024-01-11T03:50:00;-6.70;1.00
4699;DHT22;33708;49.466;11.176;2024-01-11T03:52:26;-6.70;1.00
4699;DHT22;33708;49.466;11.176;2024-01-11T03:54:51;-6.80;1.00
4699;DHT22;33708;49.466;11.176;2024-01-11T03:57:17;-6.80;1.00
4699;DHT22;33708;49.466;11.176;2024-01-11T03:59:43;-6.90;1.00
4699;DHT22;33708;49.466;11.176;2024-01-11T04:02:09;-7.00;1.00
4699;DHT22;33708;49.466;11.176;2024-01-11T04:04:34;-6.90;1.00
4699;DHT22;33708;49.466;11.176;2024-01-11T04:07:00;-6.90;1.00
4699;DHT22;33708;49.466;11.176;2024-01-11T04:09:25;-7.00;1.00
4699;DHT22;33708;49.466;11.176;2024-01-11T04:11:51;-6.90;1.00
4699;DHT22;33708;49.466;11.176;2024-01-11T04:14:17;-6.80;1.00
4699;DHT22;33708;49.466;11.176;2024-01-11T04:16:43;-6.90;1.00
4699;DHT22;33708;49.466;11.176;2024-01-11T04:19:09;-6.80;1.00
4699;DHT22;33708;49.466;11.176;2024-01-11T04:21:34;-6.90;1.00
4699;DHT22;33708;49.466;11.176;2024-01-11T04:24:00;-7.00;1.00
4699;DHT22;33708;49.466;11.176;2024-01-11T04:26:26;-6.90;1.00
4699;DHT22;33708;49.466;11.176;2024-01-11T04:28:52;-6.80;1.00
4699;DHT22;33708;49.466;11.176;2024-01-11T04:31:19;-6.90;1.00
4699;DHT22;33708;49.466;11.176;2024-01-11T04:33:45;-6.80;1.00
4699;DHT22;33708;49.466;11.176;2024-01-11T04:36:12;-7.00;1.00
4699;DHT22;33708;49.466;11.176;2024-01-11T04:38:38;-6.90;1.00
4699;DHT22;33708;49.466;11.176;2024-01-11T04:41:13;-6.80;1.00
4699;DHT22;33708;49.466;11.176;2024-01-11T04:43:39;-6.80;1.00
4699;DHT22;33708;49.466;11.176;2024-01-11T04:46:19;-6.90;1.00
4699;DHT22;33708;49.466;11.176;2024-01-11T04:48:45;-7.00;1.00
4699;DHT22;33708;49.466;11.176;2024-01-11T04:51:15;-7.10;1.00
4699;DHT22;33708;49.466;11.176;2024-01-11T04:53:41;-7.00;1.00
4699;DHT22;33708;49.466;11.176;2024-01-11T04:56:08;-6.90;1.00
4699;DHT22;33708;49.466;11.176;2024-01-11T04:58:35;-6.90;1.00
4699;DHT22;33708;49.466;11.176;2024-01-11T05:01:01;-7.10;1.00
4699;DHT22;33708;49.466;11.176;2024-01-11T05:03:27;-7.10;1.00
4699;DHT22;33708;49.466;11.176;2024-01-11T05:05:52;-7.20;1.00
4699;DHT22;33708;49.466;11.176;2024-01-11T05:08:18;-7.00;1.00
4699;DHT22;33708;49.466;11.176;2024-01-11T05:10:44;-7.00;1.00
4699;DHT22;33708;49.466;11.176;2024-01-11T05:13:10;-6.80;1.00
4699;DHT22;33708;49.466;11.176;2024-01-11T05:15:36;-6.90;1.00
4699;DHT22;33708;49.466;11.176;2024-01-11T05:18:01;-7.10;1.00
4699;DHT22;33708;49.466;11.176;2024-01-11T05:20:27;-6.70;1.00
4699;DHT22;33708;49.466;11.176;2024-01-11T05:22:52;-8.80;1.00
4699;DHT22;33708;49.466;11.176;2024-01-11T05:25:18;-7.10;1.00
4699;DHT22;33708;49.466;11.176;2024-01-11T05:27:43;-7.20;1.00
4699;DHT22;33708;49.466;11.176;2024-01-11T05:30:09;-7.10;1.00
4699;DHT22;33708;49.466;11.176;2024-01-11T05:32:35;-7.00;1.00
4699;DHT22;33708;49.466;11.176;2024-01-11T05:35:01;-7.20;1.00
4699;DHT22;33708;49.466;11.176;2024-01-11T05:37:26;-7.20;1.00
4699;DHT22;33708;49.466;11.176;2024-01-11T05:39:52;-7.20;1.00
4699;DHT22;33708;49.466;11.176;2024-01-11T05:42:19;-7.40;1.00
4699;DHT22;33708;49.466;11.176;2024-01-11T05:44:45;-7.30;1.00
4699;DHT22;33708;49.466;11.176;2024-01-11T05:47:10;-7.50;1.00
4699;DHT22;33708;49.466;11.176;2024-01-11T05:49:36;-7.50;1.00
4699;DHT22;33708;49.466;11.176;2024-01-11T05:52:02;-7.40;1.00
4699;DHT22;33708;49.466;11.176;2024-01-11T05:54:27;-7.50;1.00
4699;DHT22;33708;49.466;11.176;2024-01-11T05:56:54;-7.40;1.00
4699;DHT22;33708;49.466;11.176;2024-01-11T05:59:22;-7.40;1.00
4699;DHT22;33708;49.466;11.176;2024-01-11T06:01:47;-7.50;1.00
4699;DHT22;33708;49.466;11.176;2024-01-11T06:04:13;-7.40;1.00
4699;DHT22;33708;49.466;11.176;2024-01-11T06:06:40;-7.60;1.00
4699;DHT22;33708;49.466;11.176;2024-01-11T06:09:06;-7.60;1.00
4699;DHT22;33708;49.466;11.176;2024-01-11T06:11:32;-7.50;1.00
4699;DHT22;33708;49.466;11.176;2024-01-11T06:13:57;-7.40;1.00
4699;DHT22;33708;49.466;11.176;2024-01-11T06:16:23;-7.40;1.00
4699;DHT22;33708;49.466;11.176;2024-01-11T06:18:50;-7.50;1.00
4699;DHT22;33708;49.466;11.176;2024-01-11T06:21:18;-7.50;1.00
4699;DHT22;33708;49.466;11.176;2024-01-11T06:23:48;-7.40;1.00
4699;DHT22;33708;49.466;11.176;2024-01-11T06:26:14;-6.10;1.00
4699;DHT22;33708;49.466;11.176;2024-01-11T06:28:40;-7.20;1.00
4699;DHT22;33708;49.466;11.176;2024-01-11T06:31:05;-7.10;1.00
4699;DHT22;33708;49.466;11.176;2024-01-11T06:33:31;-7.30;1.00
4699;DHT22;33708;49.466;11.176;2024-01-11T06:35:58;-7.60;1.00
4699;DHT22;33708;49.466;11.176;2024-01-11T06:38:24;-7.40;1.00
4699;DHT22;33708;49.466;11.176;2024-01-11T06:40:49;-7.30;1.00
4699;DHT22;33708;49.466;11.176;2024-01-11T06:43:16;-7.50;1.00
4699;DHT22;33708;49.466;11.176;2024-01-11T06:45:43;-7.60;1.00
4699;DHT22;33708;49.466;11.176;2024-01-11T06:48:09;-7.40;1.00
4699;DHT22;33708;49.466;11.176;2024-01-11T06:50:34;-7.30;1.00
4699;DHT22;33708;49.466;11.176;2024-01-11T06:53:01;-7.20;1.00
4699;DHT22;33708;49.466;11.176;2024-01-11T06:55:27;-7.40;1.00
4699;DHT22;33708;49.466;11.176;2024-01-11T06:57:53;-7.60;1.00
4699;DHT22;33708;49.466;11.176;2024-01-11T07:00:18;-7.60;1.00
4699;DHT22;33708;49.466;11.176;2024-01-11T07:02:44;-7.60;1.00
4699;DHT22;33708;49.466;11.176;2024-01-11T07:05:10;-7.60;1.00
4699;DHT22;33708;49.466;11.176;2024-01-11T07:07:35;-7.50;1.00
4699;DHT22;33708;49.466;11.176;2024-01-11T07:10:01;-7.70;1.00
4699;DHT22;33708;49.466;11.176;2024-01-11T07:12:27;-7.60;1.00
4699;DHT22;33708;49.466;11.176;2024-01-11T07:14:53;-7.60;1.00
4699;DHT22;33708;49.466;11.176;2024-01-11T07:17:18;-7.60;1.00
4699;DHT22;33708;49.466;11.176;2024-01-11T07:19:44;-7.50;1.00
4699;DHT22;33708;49.466;11.176;2024-01-11T07:22:10;-7.20;1.00
4699;DHT22;33708;49.466;11.176;2024-01-11T07:24:37;-7.40;1.00
4699;DHT22;33708;49.466;11.176;2024-01-11T07:27:06;-7.60;1.00
4699;DHT22;33708;49.466;11.176;2024-01-11T07:29:33;-7.50;1.00
4699;DHT22;33708;49.466;11.176;2024-01-11T07:31:59;-7.50;1.00
4699;DHT22;33708;49.466;11.176;2024-01-11T07:34:25;-8.80;1.00
4699;DHT22;33708;49.466;11.176;2024-01-11T07:36:52;-7.50;1.00
4699;DHT22;33708;49.466;11.176;2024-01-11T07:39:17;-7.40;1.00
4699;DHT22;33708;49.466;11.176;2024-01-11T07:41:43;-7.40;1.00
4699;DHT22;33708;49.466;11.176;2024-01-11T07:44:09;-7.20;1.00
4699;DHT22;33708;49.466;11.176;2024-01-11T07:46:34;-7.10;1.00
4699;DHT22;33708;49.466;11.176;2024-01-11T07:49:00;-7.30;1.00
4699;DHT22;33708;49.466;11.176;2024-01-11T07:51:26;-7.30;1.00
4699;DHT22;33708;49.466;11.176;2024-01-11T07:53:52;-7.10;1.00
4699;DHT22;33708;49.466;11.176;2024-01-11T07:56:18;-6.80;1.00
4699;DHT22;33708;49.466;11.176;2024-01-11T07:58:44;-6.70;1.00
4699;DHT22;33708;49.466;11.176;2024-01-11T08:01:09;-4.90;1.00
4699;DHT22;33708;49.466;11.176;2024-01-11T08:03:35;-3.80;1.00
4699;DHT22;33708;49.466;11.176;2024-01-11T08:06:01;-2.80;1.00
4699;DHT22;33708;49.466;11.176;2024-01-11T08:08:26;-2.60;1.00
4699;DHT22;33708;49.466;11.176;2024-01-11T08:10:53;-2.20;1.00
4699;DHT22;33708;49.466;11.176;2024-01-11T08:13:19;-1.10;1.00
4699;DHT22;33708;49.466;11.176;2024-01-11T08:15:47;-0.40;1.00
4699;DHT22;33708;49.466;11.176;2024-01-11T08:18:15;-0.50;1.00
4699;DHT22;33708;49.466;11.176;2024-01-11T08:20:43;0.60;1.00
4699;DHT22;33708;49.466;11.176;2024-01-11T08:23:08;1.40;1.00
4699;DHT22;33708;49.466;11.176;2024-01-11T08:25:34;1.30;1.00
4699;DHT22;33708;49.466;11.176;2024-01-11T08:28:00;1.60;1.00
4699;DHT22;33708;49.466;11.176;2024-01-11T08:30:26;1.80;1.00
4699;DHT22;33708;49.466;11.176;2024-01-11T08:32:52;1.80;1.00
4699;DHT22;33708;49.466;11.176;2024-01-11T08:35:18;2.70;1.00
4699;DHT22;33708;49.466;11.176;2024-01-11T08:37:43;3.10;1.00
4699;DHT22;33708;49.466;11.176;2024-01-11T08:40:09;3.70;65.20
4699;DHT22;33708;49.466;11.176;2024-01-11T08:42:35;4.40;1.00
4699;DHT22;33708;49.466;11.176;2024-01-11T08:45:00;4.00;1.00
4699;DHT22;33708;49.466;11.176;2024-01-11T08:47:32;4.50;1.00
4699;DHT22;33708;49.466;11.176;2024-01-11T08:49:57;4.10;1.00
4699;DHT22;33708;49.466;11.176;2024-01-11T08:52:23;4.30;1.00
4699;DHT22;33708;49.466;11.176;2024-01-11T08:54:49;4.20;1.00
4699;DHT22;33708;49.466;11.176;2024-01-11T08:57:15;4.10;1.00
4699;DHT22;33708;49.466;11.176;2024-01-11T08:59:40;4.60;1.00
4699;DHT22;33708;49.466;11.176;2024-01-11T09:02:06;4.60;1.00
4699;DHT22;33708;49.466;11.176;2024-01-11T09:04:32;5.00;1.00
4699;DHT22;33708;49.466;11.176;2024-01-11T09:06:58;5.50;1.00
4699;DHT22;33708;49.466;11.176;2024-01-11T09:09:25;4.60;1.00
4699;DHT22;33708;49.466;11.176;2024-01-11T09:11:50;4.60;1.00
4699;DHT22;33708;49.466;11.176;2024-01-11T09:14:16;3.60;1.00
4699;DHT22;33708;49.466;11.176;2024-01-11T09:16:42;2.60;1.00
4699;DHT22;33708;49.466;11.176;2024-01-11T09:19:10;2.50;1.00
4699;DHT22;33708;49.466;11.176;2024-01-11T09:21:36;1.80;1.00
4699;DHT22;33708;49.466;11.176;2024-01-11T09:24:02;0.90;1.00
4699;DHT22;33708;49.466;11.176;2024-01-11T09:26:27;0.30;1.00
4699;DHT22;33708;49.466;11.176;2024-01-11T09:28:53;0.10;1.00
4699;DHT22;33708;49.466;11.176;2024-01-11T09:31:19;-0.10;1.00
4699;DHT22;33708;49.466;11.176;2024-01-11T09:33:45;-0.70;1.00
4699;DHT22;33708;49.466;11.176;2024-01-11T09:36:12;-1.60;99.90
4699;DHT22;33708;49.466;11.176;2024-01-11T09:38:38;-1.80;1.00
4699;DHT22;33708;49.466;11.176;2024-01-11T09:41:09;-1.70;37.50
4699;DHT22;33708;49.466;11.176;2024-01-11T09:43:36;-0.90;99.90
4699;DHT22;33708;49.466;11.176;2024-01-11T09:46:05;-1.30;99.90
4699;DHT22;33708;49.466;11.176;2024-01-11T09:48:35;-1.90;99.90
4699;DHT22;33708;49.466;11.176;2024-01-11T09:51:02;-1.40;1.00
4699;DHT22;33708;49.466;11.176;2024-01-11T09:53:32;-1.30;10.60
4699;DHT22;33708;49.466;11.176;2024-01-11T09:55:59;-1.20;1.00
4699;DHT22;33708;49.466;11.176;2024-01-11T09:58:25;-1.30;1.00
4699;DHT22;33708;49.466;11.176;2024-01-11T10:00:55;-1.00;1.00
4699;DHT22;33708;49.466;11.176;2024-01-11T10:03:24;-1.10;1.00
4699;DHT22;33708;49.466;11.176;2024-01-11T10:05:51;-1.00;1.00
4699;DHT22;33708;49.466;11.176;2024-01-11T10:08:22;-1.10;40.50
4699;DHT22;33708;49.466;11.176;2024-01-11T10:10:48;-1.00;1.00
4699;DHT22;33708;49.466;11.176;2024-01-11T10:13:14;-1.30;1.00
4699;DHT22;33708;49.466;11.176;2024-01-11T10:15:39;-1.30;1.00
4699;DHT22;33708;49.466;11.176;2024-01-11T10:18:05;-1.30;1.00
4699;DHT22;33708;49.466;11.176;2024-01-11T10:20:31;-1.20;1.00
4699;DHT22;33708;49.466;11.176;2024-01-11T10:22:58;-1.10;1.00
4699;DHT22;33708;49.466;11.176;2024-01-11T10:25:24;-1.10;1.00
4699;DHT22;33708;49.466;11.176;2024-01-11T10:27:51;-1.00;1.00
4699;DHT22;33708;49.466;11.176;2024-01-11T10:30:17;-1.00;1.00
4699;DHT22;33708;49.466;11.176;2024-01-11T10:32:46;-0.90;1.00
4699;DHT22;33708;49.466;11.176;2024-01-11T10:35:12;-0.90;1.00
4699;DHT22;33708;49.466;11.176;2024-01-11T10:37:38;-0.80;1.00
4699;DHT22;33708;49.466;11.176;2024-01-11T10:40:09;-0.70;1.00
4699;DHT22;33708;49.466;11.176;2024-01-11T10:42:45;-0.50;1.00
4699;DHT22;33708;49.466;11.176;2024-01-11T10:45:20;-0.50;1.00
4699;DHT22;33708;49.466;11.176;2024-01-11T10:48:01;-0.50;1.00
4699;DHT22;33708;49.466;11.176;2024-01-11T10:50:34;-0.50;1.00
4699;DHT22;33708;49.466;11.176;2024-01-11T10:55:50;-0.30;1.00
4699;DHT22;33708;49.466;11.176;2024-01-11T10:58:16;-0.10;1.00
4699;DHT22;33708;49.466;11.176;2024-01-11T11:00:43;0.00;1.00
4699;DHT22;33708;49.466;11.176;2024-01-11T11:03:11;0.00;1.00
4699;DHT22;33708;49.466;11.176;2024-01-11T11:05:38;0.10;1.00
4699;DHT22;33708;49.466;11.176;2024-01-11T11:08:04;0.20;1.00
4699;DHT22;33708;49.466;11.176;2024-01-11T11:10:34;0.30;1.00
4699;DHT22;33708;49.466;11.176;2024-01-11T11:13:00;0.30;1.00
4699;DHT22;33708;49.466;11.176;2024-01-11T11:15:29;0.20;1.00
4699;DHT22;33708;49.466;11.176;2024-01-11T11:17:55;0.00;1.00
4699;DHT22;33708;49.466;11.176;2024-01-11T11:20:20;0.20;1.00
4699;DHT22;33708;49.466;11.176;2024-01-11T11:23:16;0.40;1.00
4699;DHT22;33708;49.466;11.176;2024-01-11T11:25:45;0.50;1.00
4699;DHT22;33708;49.466;11.176;2024-01-11T11:28:12;0.60;1.00
4699;DHT22;33708;49.466;11.176;2024-01-11T11:30:40;0.70;1.00
4699;DHT22;33708;49.466;11.176;2024-01-11T11:33:17;0.80;1.00
4699;DHT22;33708;49.466;11.176;2024-01-11T11:35:43;1.00;1.00
4699;DHT22;33708;49.466;11.176;2024-01-11T11:38:21;0.70;1.00
4699;DHT22;33708;49.466;11.176;2024-01-11T11:40:51;1.00;1.00
4699;DHT22;33708;49.466;11.176;2024-01-11T11:43:18;1.20;1.00
4699;DHT22;33708;49.466;11.176;2024-01-11T11:45:47;1.00;1.00
4699;DHT22;33708;49.466;11.176;2024-01-11T11:51:15;1.00;1.00
4699;DHT22;33708;49.466;11.176;2024-01-11T11:53:41;1.00;1.00
4699;DHT22;33708;49.466;11.176;2024-01-11T11:56:08;1.10;1.00
4699;DHT22;33708;49.466;11.176;2024-01-11T11:58:38;1.30;1.00
4699;DHT22;33708;49.466;11.176;2024-01-11T12:01:06;1.30;1.00
4699;DHT22;33708;49.466;11.176;2024-01-11T12:03:34;1.30;1.00
4699;DHT22;33708;49.466;11.176;2024-01-11T12:06:03;1.50;1.00
4699;DHT22;33708;49.466;11.176;2024-01-11T12:08:29;1.60;1.00
4699;DHT22;33708;49.466;11.176;2024-01-11T12:10:55;1.60;1.00
4699;DHT22;33708;49.466;11.176;2024-01-11T12:13:20;1.60;1.00
4699;DHT22;33708;49.466;11.176;2024-01-11T12:15:47;1.50;1.00
4699;DHT22;33708;49.466;11.176;2024-01-11T12:18:12;1.60;1.00
4699;DHT22;33708;49.466;11.176;2024-01-11T12:20:38;1.60;1.00
4699;DHT22;33708;49.466;11.176;2024-01-11T12:23:04;1.50;1.00
4699;DHT22;33708;49.466;11.176;2024-01-11T12:25:30;1.50;1.00
4699;DHT22;33708;49.466;11.176;2024-01-11T12:27:56;1.20;1.00
4699;DHT22;33708;49.466;11.176;2024-01-11T12:30:26;1.00;1.00
4699;DHT22;33708;49.466;11.176;2024-01-11T12:32:56;0.90;1.00
4699;DHT22;33708;49.466;11.176;2024-01-11T12:35:22;0.80;1.00
4699;DHT22;33708;49.466;11.176;2024-01-11T12:37:55;0.90;1.00
4699;DHT22;33708;49.466;11.176;2024-01-11T12:40:21;0.80;1.00
4699;DHT22;33708;49.466;11.176;2024-01-11T12:42:47;1.90;1.00
4699;DHT22;33708;49.466;11.176;2024-01-11T12:45:17;0.80;1.00
4699;DHT22;33708;49.466;11.176;2024-01-11T12:47:45;0.80;1.00
4699;DHT22;33708;49.466;11.176;2024-01-11T12:50:13;0.70;1.00
4699;DHT22;33708;49.466;11.176;2024-01-11T12:52:40;0.70;1.00
4699;DHT22;33708;49.466;11.176;2024-01-11T12:55:08;0.80;1.00
4699;DHT22;33708;49.466;11.176;2024-01-11T12:57:44;0.80;1.00
4699;DHT22;33708;49.466;11.176;2024-01-11T13:00:11;0.80;1.00
4699;DHT22;33708;49.466;11.176;2024-01-11T13:02:37;0.90;1.00
4699;DHT22;33708;49.466;11.176;2024-01-11T13:05:04;0.80;1.00
4699;DHT22;33708;49.466;11.176;2024-01-11T13:07:30;0.70;1.00
4699;DHT22;33708;49.466;11.176;2024-01-11T13:09:56;0.70;1.00
4699;DHT22;33708;49.466;11.176;2024-01-11T13:12:22;0.80;1.00
4699;DHT22;33708;49.466;11.176;2024-01-11T13:14:48;0.80;1.00
4699;DHT22;33708;49.466;11.176;2024-01-11T13:17:14;0.80;1.00
4699;DHT22;33708;49.466;11.176;2024-01-11T13:19:39;0.80;1.00
4699;DHT22;33708;49.466;11.176;2024-01-11T13:22:05;0.90;1.00
4699;DHT22;33708;49.466;11.176;2024-01-11T13:24:31;0.90;1.00
4699;DHT22;33708;49.466;11.176;2024-01-11T13:26:56;0.90;1.00
4699;DHT22;33708;49.466;11.176;2024-01-11T13:29:22;0.90;1.00
4699;DHT22;33708;49.466;11.176;2024-01-11T13:31:49;0.90;1.00
4699;DHT22;33708;49.466;11.176;2024-01-11T13:34:16;0.90;1.00
4699;DHT22;33708;49.466;11.176;2024-01-11T13:36:43;0.90;1.00
4699;DHT22;33708;49.466;11.176;2024-01-11T13:39:08;0.90;1.00
4699;DHT22;33708;49.466;11.176;2024-01-11T13:41:34;0.90;1.00
4699;DHT22;33708;49.466;11.176;2024-01-11T13:44:00;0.90;1.00
4699;DHT22;33708;49.466;11.176;2024-01-11T13:46:25;0.80;1.00
4699;DHT22;33708;49.466;11.176;2024-01-11T13:48:51;0.90;1.00
4699;DHT22;33708;49.466;11.176;2024-01-11T13:51:17;0.90;1.00
4699;DHT22;33708;49.466;11.176;2024-01-11T13:53:42;1.00;1.00
4699;DHT22;33708;49.466;11.176;2024-01-11T13:56:08;0.80;1.00
4699;DHT22;33708;49.466;11.176;2024-01-11T13:58:36;0.80;1.00
4699;DHT22;33708;49.466;11.176;2024-01-11T14:01:02;0.80;1.00
4699;DHT22;33708;49.466;11.176;2024-01-11T14:03:28;0.80;1.00
4699;DHT22;33708;49.466;11.176;2024-01-11T14:05:53;0.70;1.00
4699;DHT22;33708;49.466;11.176;2024-01-11T14:08:19;0.80;1.00
4699;DHT22;33708;49.466;11.176;2024-01-11T14:10:45;0.80;1.00
4699;DHT22;33708;49.466;11.176;2024-01-11T14:13:10;0.80;1.00
4699;DHT22;33708;49.466;11.176;2024-01-11T14:15:36;0.80;1.00
4699;DHT22;33708;49.466;11.176;2024-01-11T14:18:02;0.90;1.00
4699;DHT22;33708;49.466;11.176;2024-01-11T14:20:28;0.70;1.00
4699;DHT22;33708;49.466;11.176;2024-01-11T14:22:54;0.80;1.00
4699;DHT22;33708;49.466;11.176;2024-01-11T14:25:21;0.80;1.00
4699;DHT22;33708;49.466;11.176;2024-01-11T14:27:50;0.70;1.00
4699;DHT22;33708;49.466;11.176;2024-01-11T14:30:17;0.80;1.00
4699;DHT22;33708;49.466;11.176;2024-01-11T14:32:44;0.70;1.00
4699;DHT22;33708;49.466;11.176;2024-01-11T14:35:11;0.60;1.00
4699;DHT22;33708;49.466;11.176;2024-01-11T14:37:38;0.60;1.00
4699;DHT22;33708;49.466;11.176;2024-01-11T14:40:08;0.50;1.00
4699;DHT22;33708;49.466;11.176;2024-01-11T14:42:37;0.40;1.00
4699;DHT22;33708;49.466;11.176;2024-01-11T14:45:04;0.30;1.00
4699;DHT22;33708;49.466;11.176;2024-01-11T14:47:30;0.30;1.00
4699;DHT22;33708;49.466;11.176;2024-01-11T14:49:59;0.30;1.00
4699;DHT22;33708;49.466;11.176;2024-01-11T14:52:25;0.20;1.00
4699;DHT22;33708;49.466;11.176;2024-01-11T14:54:51;0.20;1.00
4699;DHT22;33708;49.466;11.176;2024-01-11T14:57:17;0.10;1.00
4699;DHT22;33708;49.466;11.176;2024-01-11T14:59:43;0.10;1.00
4699;DHT22;33708;49.466;11.176;2024-01-11T15:02:10;0.00;1.00
4699;DHT22;33708;49.466;11.176;2024-01-11T15:04:36;0.00;1.00
4699;DHT22;33708;49.466;11.176;2024-01-11T15:07:02;0.00;1.00
4699;DHT22;33708;49.466;11.176;2024-01-11T15:09:27;-0.10;1.00
4699;DHT22;33708;49.466;11.176;2024-01-11T15:11:53;-0.20;1.00
4699;DHT22;33708;49.466;11.176;2024-01-11T15:14:19;-0.30;1.00
4699;DHT22;33708;49.466;11.176;2024-01-11T15:16:44;-0.30;1.00
4699;DHT22;33708;49.466;11.176;2024-01-11T15:19:11;-0.40;1.00
4699;DHT22;33708;49.466;11.176;2024-01-11T15:21:38;-0.40;1.00
4699;DHT22;33708;49.466;11.176;2024-01-11T15:24:04;-0.50;1.00
4699;DHT22;33708;49.466;11.176;2024-01-11T15:26:30;-0.50;1.00
4699;DHT22;33708;49.466;11.176;2024-01-11T15:28:56;-0.60;1.00
4699;DHT22;33708;49.466;11.176;2024-01-11T15:31:22;-0.60;1.00
4699;DHT22;33708;49.466;11.176;2024-01-11T15:33:52;-0.60;1.00
4699;DHT22;33708;49.466;11.176;2024-01-11T15:36:22;-0.70;1.00
4699;DHT22;33708;49.466;11.176;2024-01-11T15:38:52;-0.80;1.00
4699;DHT22;33708;49.466;11.176;2024-01-11T15:41:22;-0.80;1.00
4699;DHT22;33708;49.466;11.176;2024-01-11T15:43:53;-0.80;1.00
4699;DHT22;33708;49.466;11.176;2024-01-11T15:46:21;-0.90;1.00
4699;DHT22;33708;49.466;11.176;2024-01-11T15:48:48;-1.00;1.00
4699;DHT22;33708;49.466;11.176;2024-01-11T15:51:20;-1.00;1.00